RJAW(METAR)
05/26 18:07
RJAW 260907Z 24013KT 9999 BKN012 BKN150 BKN230 28/25 Q1012 RMK
5CU012 6AC150 A2989=
戻る
トップページへ戻る
IMOC Co,.Ltd.